createdAt,value
2023-02-16T00:01:53.971Z,47.07
2023-02-16T00:04:23.453Z,58.73
2023-02-16T00:06:50.784Z,71.57
2023-02-16T00:09:18.360Z,48.53
2023-02-16T00:12:04.247Z,52.67
2023-02-16T00:14:33.443Z,52.73
2023-02-16T00:17:01.248Z,44.77
2023-02-16T00:19:35.320Z,72.30
2023-02-16T00:22:02.646Z,49.90
2023-02-16T00:24:30.563Z,50.40
2023-02-16T00:26:59.410Z,52.53
2023-02-16T00:29:37.521Z,58.47
2023-02-16T00:32:05.905Z,58.57
2023-02-16T00:34:35.611Z,62.13
2023-02-16T00:37:10.876Z,45.90
2023-02-16T00:39:38.670Z,42.00
2023-02-16T00:42:13.038Z,48.80
2023-02-16T00:44:46.313Z,59.03
2023-02-16T00:47:23.101Z,48.30
2023-02-16T00:49:52.449Z,43.43
2023-02-16T00:52:33.568Z,58.93
2023-02-16T00:55:02.051Z,49.83
2023-02-16T00:57:33.013Z,70.07
2023-02-16T01:00:24.130Z,46.93
2023-02-16T01:02:53.543Z,44.17
2023-02-16T01:05:20.387Z,84.53
2023-02-16T01:08:06.238Z,62.13
2023-02-16T01:10:52.514Z,42.67
2023-02-16T01:13:19.339Z,40.70
2023-02-16T01:15:46.569Z,80.70
2023-02-16T01:18:15.265Z,51.07
2023-02-16T01:20:42.130Z,47.33
2023-02-16T01:23:09.240Z,50.77
2023-02-16T01:25:36.777Z,46.13
2023-02-16T01:28:04.026Z,66.10
2023-02-16T01:30:30.807Z,42.83
2023-02-16T01:32:57.441Z,46.10
2023-02-16T01:35:29.454Z,41.97
2023-02-16T01:37:56.057Z,54.90
2023-02-16T01:40:34.834Z,48.53
2023-02-16T01:43:36.801Z,64.70
2023-02-16T01:46:13.920Z,70.33
2023-02-16T01:48:40.743Z,87.03
2023-02-16T01:51:20.184Z,41.30
2023-02-16T01:54:03.401Z,51.80
2023-02-16T01:56:40.014Z,38.87
2023-02-16T01:59:30.269Z,37.30
2023-02-16T02:02:05.088Z,34.57
2023-02-16T02:05:07.070Z,53.13
2023-02-16T02:07:51.325Z,33.73
2023-02-16T02:10:30.163Z,40.30
2023-02-16T02:13:07.007Z,43.70
2023-02-16T02:15:34.671Z,28.83
2023-02-16T02:18:01.918Z,29.33
2023-02-16T02:21:07.694Z,30.40
2023-02-16T02:23:52.605Z,32.67
2023-02-16T02:26:57.966Z,25.87
2023-02-16T02:29:50.564Z,25.93
2023-02-16T02:32:23.801Z,29.23
2023-02-16T02:35:12.086Z,23.70
2023-02-16T02:37:51.151Z,25.70
2023-02-16T02:40:46.700Z,24.80
2023-02-16T02:43:19.100Z,23.47
2023-02-16T02:46:11.128Z,26.03
2023-02-16T02:48:38.176Z,24.80
2023-02-16T02:51:26.893Z,23.00
2023-02-16T02:54:23.673Z,23.20
2023-02-16T02:57:16.192Z,22.63
2023-02-16T03:00:09.205Z,22.63
2023-02-16T03:02:38.850Z,22.53
2023-02-16T03:05:08.495Z,18.10
2023-02-16T03:07:49.638Z,17.43
2023-02-16T03:10:37.723Z,29.37
2023-02-16T03:13:09.926Z,25.90
2023-02-16T03:15:37.908Z,22.87
2023-02-16T03:18:25.999Z,27.63
2023-02-16T03:21:11.835Z,21.37
2023-02-16T03:23:58.896Z,22.93
2023-02-16T03:26:46.492Z,21.97
2023-02-16T03:29:22.511Z,23.90
2023-02-16T03:31:51.543Z,19.43
2023-02-16T03:34:20.146Z,32.70
2023-02-16T03:36:50.504Z,21.60
2023-02-16T03:39:17.990Z,30.00
2023-02-16T03:41:52.674Z,21.70
2023-02-16T03:44:19.830Z,32.57
2023-02-16T03:46:49.447Z,23.30
2023-02-16T03:49:17.633Z,22.20
2023-02-16T03:51:45.239Z,21.10
2023-02-16T03:54:12.651Z,20.63
2023-02-16T03:56:39.367Z,21.40
2023-02-16T03:59:05.999Z,28.83
2023-02-16T04:01:33.480Z,33.73
2023-02-16T04:04:00.167Z,23.67
2023-02-16T04:06:26.941Z,22.53
2023-02-16T04:08:54.805Z,21.53
2023-02-16T04:11:40.417Z,21.20
2023-02-16T04:14:07.100Z,21.93
2023-02-16T04:16:33.803Z,23.63
2023-02-16T04:19:00.494Z,28.20
2023-02-16T04:21:27.286Z,20.90
2023-02-16T04:23:54.066Z,26.27
2023-02-16T04:26:20.743Z,44.10
2023-02-16T04:28:47.457Z,30.30
2023-02-16T04:31:14.325Z,25.97
2023-02-16T04:33:41.071Z,27.20
2023-02-16T04:36:08.468Z,22.73
2023-02-16T04:38:35.122Z,23.60
2023-02-16T04:41:01.942Z,21.90
2023-02-16T04:43:28.836Z,29.00
2023-02-16T04:45:55.910Z,29.37
2023-02-16T04:48:22.620Z,22.07
2023-02-16T04:50:50.803Z,25.13
2023-02-16T04:53:17.623Z,21.23
2023-02-16T04:55:50.432Z,33.63
2023-02-16T04:58:17.591Z,26.53
2023-02-16T05:00:44.452Z,28.70
2023-02-16T05:03:11.246Z,26.47
2023-02-16T05:05:38.467Z,36.50
2023-02-16T05:08:05.635Z,22.80
2023-02-16T05:10:32.298Z,24.07
2023-02-16T05:13:17.621Z,31.80
2023-02-16T05:15:45.133Z,23.40
2023-02-16T05:18:13.530Z,24.67
2023-02-16T05:20:58.958Z,26.43
2023-02-16T05:23:25.598Z,24.13
2023-02-16T05:25:52.257Z,27.57
2023-02-16T05:28:18.969Z,27.27
2023-02-16T05:30:45.829Z,30.70
2023-02-16T05:33:12.567Z,25.90
2023-02-16T05:35:39.564Z,25.80
2023-02-16T05:38:06.483Z,25.63
2023-02-16T05:40:33.223Z,25.57
2023-02-16T05:42:59.883Z,29.73
2023-02-16T05:45:26.512Z,21.07
2023-02-16T05:47:53.760Z,21.30
2023-02-16T05:50:20.656Z,40.03
2023-02-16T05:52:47.341Z,34.60
2023-02-16T05:55:14.310Z,24.90
2023-02-16T05:57:40.965Z,25.33
2023-02-16T06:00:08.704Z,24.20
2023-02-16T06:02:35.480Z,28.43
2023-02-16T06:05:02.244Z,22.37
2023-02-16T06:07:29.245Z,33.80
2023-02-16T06:09:55.964Z,30.33
2023-02-16T06:12:22.663Z,24.07
2023-02-16T06:14:49.312Z,23.40
2023-02-16T06:17:16.025Z,24.17
2023-02-16T06:19:42.923Z,25.40
2023-02-16T06:22:09.607Z,23.70
2023-02-16T06:24:37.216Z,26.00
2023-02-16T06:27:04.271Z,22.47
2023-02-16T06:29:31.005Z,35.17
2023-02-16T06:31:58.194Z,25.30
2023-02-16T06:34:25.289Z,29.20
2023-02-16T06:36:51.964Z,20.90
2023-02-16T06:39:19.081Z,19.47
2023-02-16T06:41:45.897Z,19.47
2023-02-16T06:44:15.566Z,19.50
2023-02-16T06:46:44.544Z,23.83
2023-02-16T06:49:13.395Z,19.97
2023-02-16T06:51:40.203Z,20.93
2023-02-16T06:54:07.219Z,18.40
2023-02-16T06:56:35.422Z,20.53
2023-02-16T06:59:03.643Z,19.90
2023-02-16T07:01:31.205Z,20.27
2023-02-16T07:03:58.315Z,22.50
2023-02-16T07:06:27.233Z,21.80
2023-02-16T07:08:54.443Z,27.53
2023-02-16T07:11:21.821Z,24.47
2023-02-16T07:13:48.914Z,28.20
2023-02-16T07:16:16.163Z,26.20
2023-02-16T07:18:43.271Z,28.40
2023-02-16T07:21:09.999Z,25.53
2023-02-16T07:23:37.292Z,28.20
2023-02-16T07:26:04.176Z,23.87
2023-02-16T07:28:31.084Z,32.77
2023-02-16T07:30:57.846Z,36.17
2023-02-16T07:33:24.544Z,26.20
2023-02-16T07:35:51.489Z,25.80
2023-02-16T07:38:18.153Z,24.60
2023-02-16T07:40:44.966Z,22.40
2023-02-16T07:43:11.719Z,26.67
2023-02-16T07:45:38.511Z,25.77
2023-02-16T07:48:05.492Z,24.57
2023-02-16T07:50:32.173Z,24.40
2023-02-16T07:53:02.368Z,25.33
2023-02-16T07:55:29.063Z,31.47
2023-02-16T07:57:58.893Z,35.53
2023-02-16T08:00:26.200Z,32.17
2023-02-16T08:02:53.129Z,28.87
2023-02-16T08:05:19.840Z,34.33
2023-02-16T08:07:47.810Z,30.27
2023-02-16T08:10:15.751Z,37.80
2023-02-16T08:12:42.988Z,31.03
2023-02-16T08:15:11.806Z,30.33
2023-02-16T08:17:38.935Z,31.57
2023-02-16T08:20:07.786Z,31.80
2023-02-16T08:22:35.194Z,30.80
2023-02-16T08:25:01.928Z,29.47
2023-02-16T08:27:28.607Z,40.83
2023-02-16T08:29:55.373Z,34.80
2023-02-16T08:32:22.078Z,32.40
2023-02-16T08:34:48.826Z,32.87
2023-02-16T08:37:15.515Z,30.50
2023-02-16T08:39:42.614Z,34.90
2023-02-16T08:42:13.598Z,34.63
2023-02-16T08:44:42.363Z,31.70
2023-02-16T08:47:10.863Z,31.73
2023-02-16T08:49:39.135Z,34.73
2023-02-16T08:52:06.158Z,34.57
2023-02-16T08:54:33.669Z,35.93
2023-02-16T08:57:03.047Z,29.93
2023-02-16T08:59:30.419Z,39.50
2023-02-16T09:01:59.232Z,35.67
2023-02-16T09:04:28.897Z,35.30
2023-02-16T09:06:58.617Z,39.50
2023-02-16T09:09:26.425Z,35.63
2023-02-16T09:11:53.809Z,39.13
2023-02-16T09:14:21.941Z,35.83
2023-02-16T09:16:49.035Z,37.83
2023-02-16T09:19:19.302Z,41.40
2023-02-16T09:21:47.244Z,38.50
2023-02-16T09:24:13.993Z,35.00
2023-02-16T09:26:43.174Z,40.20
2023-02-16T09:29:13.816Z,36.50
2023-02-16T09:31:41.162Z,36.03
2023-02-16T09:34:19.185Z,36.73
2023-02-16T09:36:47.249Z,39.17
2023-02-16T09:39:14.481Z,37.23
2023-02-16T09:41:49.444Z,35.53
2023-02-16T09:44:53.599Z,34.70
2023-02-16T09:47:30.942Z,38.33
2023-02-16T09:50:02.149Z,36.87
2023-02-16T09:52:36.570Z,36.87
2023-02-16T09:55:08.137Z,39.63
2023-02-16T09:58:12.804Z,41.00
2023-02-16T10:00:53.728Z,40.63
2023-02-16T10:03:41.232Z,49.63
2023-02-16T10:06:13.735Z,45.23
2023-02-16T10:08:55.253Z,52.30
2023-02-16T10:11:38.207Z,45.30
2023-02-16T10:14:23.941Z,40.17
2023-02-16T10:17:16.954Z,39.83
2023-02-16T10:20:18.273Z,37.47
2023-02-16T10:23:23.123Z,39.33
2023-02-16T10:26:00.476Z,36.70
2023-02-16T10:28:38.155Z,40.30
2023-02-16T10:31:29.120Z,36.50
2023-02-16T10:34:18.099Z,44.43
2023-02-16T10:37:19.646Z,40.90
2023-02-16T10:40:14.342Z,48.03
2023-02-16T10:42:53.411Z,37.53
2023-02-16T10:45:42.387Z,41.97
2023-02-16T10:48:10.690Z,38.70
2023-02-16T10:50:51.142Z,45.30
2023-02-16T10:54:11.468Z,44.70
2023-02-16T10:56:56.995Z,41.73
2023-02-16T10:59:26.567Z,41.50
2023-02-16T11:01:59.056Z,41.77
2023-02-16T11:04:43.891Z,42.70
2023-02-16T11:07:13.133Z,41.00
2023-02-16T11:09:41.935Z,47.47
2023-02-16T11:12:28.405Z,53.13
2023-02-16T11:15:03.146Z,42.53
2023-02-16T11:17:32.282Z,38.57
2023-02-16T11:20:24.354Z,44.73
2023-02-16T11:22:51.659Z,50.20
2023-02-16T11:25:18.625Z,44.40
2023-02-16T11:27:52.598Z,42.60
2023-02-16T11:30:29.386Z,43.00
2023-02-16T11:32:56.621Z,38.63
2023-02-16T11:35:23.642Z,41.00
2023-02-16T11:37:51.029Z,42.23
2023-02-16T11:40:28.613Z,45.70
2023-02-16T11:42:58.693Z,44.67
2023-02-16T11:45:36.251Z,49.37
2023-02-16T11:48:07.426Z,53.37
2023-02-16T11:50:38.478Z,47.33
2023-02-16T11:53:11.681Z,47.20
2023-02-16T11:55:43.709Z,55.27
2023-02-16T11:58:27.780Z,51.37
2023-02-16T12:01:22.427Z,51.87
2023-02-16T12:04:04.171Z,50.20
2023-02-16T12:06:52.143Z,47.87
2023-02-16T12:09:55.440Z,51.70
2023-02-16T12:12:33.535Z,47.87
2023-02-16T12:15:14.648Z,42.93
2023-02-16T12:18:00.513Z,45.80
2023-02-16T12:20:41.781Z,40.27
2023-02-16T12:23:38.362Z,49.90
2023-02-16T12:26:37.694Z,42.10
2023-02-16T12:29:44.800Z,45.70
2023-02-16T12:32:20.116Z,45.90
2023-02-16T12:34:58.329Z,43.77
2023-02-16T12:37:50.555Z,53.90
2023-02-16T12:40:49.520Z,43.00
2023-02-16T12:43:54.010Z,48.43
2023-02-16T12:46:39.363Z,43.83
2023-02-16T12:49:35.896Z,46.07
2023-02-16T12:52:08.820Z,41.10
2023-02-16T12:54:48.349Z,45.93
2023-02-16T12:57:18.916Z,47.80
2023-02-16T12:59:59.770Z,48.60
2023-02-16T13:02:33.394Z,46.40
2023-02-16T13:05:09.074Z,45.90
2023-02-16T13:08:01.419Z,44.80
2023-02-16T13:10:47.388Z,41.60
2023-02-16T13:13:18.245Z,41.10
2023-02-16T13:15:53.000Z,49.10
2023-02-16T13:18:28.480Z,51.17
2023-02-16T13:21:19.373Z,53.47
2023-02-16T13:24:23.859Z,41.27
2023-02-16T13:27:07.272Z,43.63
2023-02-16T13:29:52.612Z,39.60
2023-02-16T13:32:37.979Z,41.77
2023-02-16T13:35:26.316Z,38.97
2023-02-16T13:38:28.761Z,42.20
2023-02-16T13:40:58.264Z,44.40
2023-02-16T13:43:37.630Z,41.20
2023-02-16T13:46:12.241Z,44.63
2023-02-16T13:48:47.514Z,43.53
2023-02-16T13:51:18.321Z,43.63
2023-02-16T13:54:01.853Z,55.10
2023-02-16T13:56:36.130Z,49.43
2023-02-16T13:59:35.269Z,43.30
2023-02-16T14:02:02.357Z,54.10
2023-02-16T14:04:31.796Z,41.67
2023-02-16T14:07:01.453Z,34.20
2023-02-16T14:09:36.795Z,52.37
2023-02-16T14:12:11.517Z,60.10
2023-02-16T14:14:53.169Z,53.97
2023-02-16T14:17:19.844Z,43.73
2023-02-16T14:20:07.391Z,54.17
2023-02-16T14:22:40.622Z,40.43
2023-02-16T14:25:28.902Z,43.10
2023-02-16T14:28:06.988Z,42.23
2023-02-16T14:30:53.218Z,41.67
2023-02-16T14:33:40.720Z,42.83
2023-02-16T14:36:19.859Z,45.70
2023-02-16T14:38:52.316Z,40.43
2023-02-16T14:41:34.270Z,41.33
2023-02-16T14:44:07.085Z,42.20
2023-02-16T14:46:58.609Z,45.43
2023-02-16T14:49:43.351Z,44.40
2023-02-16T14:52:37.285Z,57.80
2023-02-16T14:55:30.864Z,47.27
2023-02-16T14:58:20.947Z,47.80
2023-02-16T15:00:54.010Z,43.60
2023-02-16T15:03:23.548Z,65.70
2023-02-16T15:05:57.167Z,54.73
2023-02-16T15:08:35.091Z,48.53
2023-02-16T15:11:13.869Z,43.87
2023-02-16T15:13:41.004Z,46.10
2023-02-16T15:16:13.851Z,42.93
2023-02-16T15:18:44.656Z,46.70
2023-02-16T15:21:26.827Z,47.30
2023-02-16T15:23:56.209Z,51.17
2023-02-16T15:26:29.497Z,46.37
2023-02-16T15:29:22.789Z,48.47
2023-02-16T15:31:49.805Z,45.33
2023-02-16T15:34:28.908Z,47.77
2023-02-16T15:36:55.763Z,43.80
2023-02-16T15:39:45.281Z,44.33
2023-02-16T15:42:22.492Z,44.60
2023-02-16T15:44:49.552Z,41.40
2023-02-16T15:47:26.629Z,47.53
2023-02-16T15:49:55.077Z,55.13
2023-02-16T15:52:34.635Z,48.93
2023-02-16T15:55:04.617Z,54.20
2023-02-16T15:57:37.212Z,51.57
2023-02-16T16:00:21.134Z,48.73
2023-02-16T16:02:54.421Z,50.47
2023-02-16T16:05:33.086Z,56.43
2023-02-16T16:08:01.246Z,60.23
2023-02-16T16:10:39.730Z,54.67
2023-02-16T16:13:23.998Z,61.43
2023-02-16T16:15:51.552Z,48.13
2023-02-16T16:18:39.110Z,51.47
2023-02-16T16:21:26.369Z,54.43
2023-02-16T16:23:55.400Z,56.63
2023-02-16T16:26:23.525Z,53.77
2023-02-16T16:28:51.296Z,55.93
2023-02-16T16:31:21.063Z,52.80
2023-02-16T16:34:06.307Z,54.00
2023-02-16T16:36:53.232Z,55.37
2023-02-16T16:39:23.705Z,51.13
2023-02-16T16:42:16.300Z,60.63
2023-02-16T16:44:53.660Z,53.60
2023-02-16T16:47:33.625Z,49.70
2023-02-16T16:50:02.919Z,50.73
2023-02-16T16:52:37.821Z,53.30
2023-02-16T16:55:22.411Z,55.50
2023-02-16T16:57:51.794Z,54.47
2023-02-16T17:00:19.548Z,60.77
2023-02-16T17:02:46.576Z,69.13
2023-02-16T17:05:13.385Z,81.97
2023-02-16T17:07:40.083Z,70.33
2023-02-16T17:10:07.515Z,59.20
2023-02-16T17:12:34.610Z,52.57
2023-02-16T17:15:02.164Z,57.10
2023-02-16T17:17:28.865Z,61.13
2023-02-16T17:19:55.573Z,56.70
2023-02-16T17:22:22.386Z,56.00
2023-02-16T17:24:49.617Z,49.20
2023-02-16T17:27:16.314Z,57.87
2023-02-16T17:29:44.661Z,53.63
2023-02-16T17:32:11.416Z,49.47
2023-02-16T17:34:38.195Z,57.03
2023-02-16T17:37:09.363Z,53.67
2023-02-16T17:39:36.392Z,53.73
2023-02-16T17:42:03.419Z,48.43
2023-02-16T17:44:30.341Z,43.23
2023-02-16T17:46:57.271Z,46.57
2023-02-16T17:49:24.143Z,44.60
2023-02-16T17:51:50.788Z,42.00
2023-02-16T17:54:17.816Z,42.93
2023-02-16T17:56:45.313Z,44.87
2023-02-16T17:59:16.331Z,54.10
2023-02-16T18:01:44.492Z,66.17
2023-02-16T18:04:11.442Z,64.03
2023-02-16T18:06:38.542Z,56.23
2023-02-16T18:09:05.213Z,46.83
2023-02-16T18:11:32.027Z,47.77
2023-02-16T18:13:58.660Z,46.10
2023-02-16T18:16:28.068Z,43.50
2023-02-16T18:18:57.287Z,45.90
2023-02-16T18:21:24.362Z,43.67
2023-02-16T18:23:51.248Z,46.70
2023-02-16T18:26:18.703Z,46.00
2023-02-16T18:28:45.576Z,46.70
2023-02-16T18:31:14.446Z,39.80
2023-02-16T18:33:41.387Z,44.43
2023-02-16T18:36:08.745Z,41.37
2023-02-16T18:38:35.531Z,46.13
2023-02-16T18:41:02.287Z,55.60
2023-02-16T18:43:29.005Z,57.73
2023-02-16T18:45:55.731Z,53.63
2023-02-16T18:48:22.510Z,49.90
2023-02-16T18:50:49.591Z,48.83
2023-02-16T18:53:16.245Z,47.57
2023-02-16T18:55:43.146Z,48.83
2023-02-16T18:58:13.273Z,43.97
2023-02-16T19:00:40.163Z,44.97
2023-02-16T19:03:07.462Z,43.93
2023-02-16T19:05:34.415Z,45.50
2023-02-16T19:08:01.104Z,47.87
2023-02-16T19:10:28.124Z,51.70
2023-02-16T19:12:54.807Z,46.23
2023-02-16T19:15:21.895Z,45.63
2023-02-16T19:17:48.749Z,41.27
2023-02-16T19:20:18.224Z,38.03
2023-02-16T19:22:49.070Z,42.40
2023-02-16T19:25:16.160Z,40.67
2023-02-16T19:27:43.736Z,38.90
2023-02-16T19:30:11.427Z,39.93
2023-02-16T19:32:40.906Z,40.00
2023-02-16T19:35:11.910Z,42.10
2023-02-16T19:37:39.561Z,36.40
2023-02-16T19:40:08.580Z,37.10
2023-02-16T19:42:35.615Z,40.50
2023-02-16T19:45:02.429Z,41.07
2023-02-16T19:47:29.115Z,41.00
2023-02-16T19:49:55.829Z,42.73
2023-02-16T19:52:22.498Z,43.90
2023-02-16T19:54:49.471Z,41.10
2023-02-16T19:57:16.784Z,36.60
2023-02-16T19:59:43.613Z,40.47
2023-02-16T20:02:15.423Z,41.77
2023-02-16T20:04:43.286Z,42.40
2023-02-16T20:07:10.007Z,48.33
2023-02-16T20:09:37.325Z,40.50
2023-02-16T20:12:05.163Z,39.50
2023-02-16T20:14:31.887Z,38.87
2023-02-16T20:16:58.612Z,49.70
2023-02-16T20:19:25.255Z,42.13
2023-02-16T20:21:51.905Z,49.10
2023-02-16T20:24:18.591Z,43.50
2023-02-16T20:26:46.284Z,44.93
2023-02-16T20:29:16.126Z,38.10
2023-02-16T20:32:04.949Z,35.60
2023-02-16T20:34:32.182Z,37.73
2023-02-16T20:36:59.027Z,33.60
2023-02-16T20:39:25.798Z,35.47
2023-02-16T20:41:52.566Z,35.00
2023-02-16T20:44:19.622Z,33.13
2023-02-16T20:46:46.285Z,38.20
2023-02-16T20:49:13.526Z,36.13
2023-02-16T20:51:41.289Z,35.17
2023-02-16T20:54:08.359Z,36.47
2023-02-16T20:56:35.149Z,40.63
2023-02-16T20:59:01.834Z,35.43
2023-02-16T21:01:31.345Z,36.37
2023-02-16T21:03:58.975Z,36.33
2023-02-16T21:06:26.980Z,40.07
2023-02-16T21:08:53.672Z,33.67
2023-02-16T21:11:20.610Z,40.43
2023-02-16T21:13:47.625Z,39.13
2023-02-16T21:16:14.857Z,44.40
2023-02-16T21:18:41.678Z,46.07
2023-02-16T21:21:09.121Z,39.07
2023-02-16T21:23:35.816Z,38.00
2023-02-16T21:26:05.597Z,41.83
2023-02-16T21:28:32.439Z,43.10
2023-02-16T21:31:07.460Z,46.00
2023-02-16T21:33:34.409Z,46.83
2023-02-16T21:36:27.577Z,48.30
2023-02-16T21:38:54.594Z,45.27
2023-02-16T21:41:25.020Z,47.47
2023-02-16T21:43:58.242Z,47.00
2023-02-16T21:46:25.911Z,48.13
2023-02-16T21:48:52.771Z,41.40
2023-02-16T21:51:24.290Z,39.17
2023-02-16T21:53:51.914Z,45.33
2023-02-16T21:56:43.568Z,44.53
2023-02-16T21:59:13.710Z,41.67
2023-02-16T22:01:45.609Z,39.50
2023-02-16T22:04:15.297Z,46.17
2023-02-16T22:06:44.790Z,39.33
2023-02-16T22:09:19.780Z,41.10
2023-02-16T22:11:47.781Z,46.87
2023-02-16T22:14:14.911Z,47.43
2023-02-16T22:16:43.677Z,49.83
2023-02-16T22:19:15.433Z,44.67
2023-02-16T22:21:44.105Z,50.00
2023-02-16T22:24:13.601Z,45.20
2023-02-16T22:26:40.904Z,39.30
2023-02-16T22:29:08.262Z,43.47
2023-02-16T22:31:36.504Z,49.67
2023-02-16T22:34:06.378Z,46.13
2023-02-16T22:36:33.811Z,47.97
2023-02-16T22:39:00.499Z,45.90
2023-02-16T22:41:27.206Z,44.20
2023-02-16T22:43:55.527Z,42.70
2023-02-16T22:46:23.845Z,43.20
2023-02-16T22:48:52.175Z,43.60
2023-02-16T22:51:20.409Z,42.23
2023-02-16T22:53:47.852Z,47.20
2023-02-16T22:56:16.857Z,50.13
2023-02-16T22:58:44.282Z,45.10
2023-02-16T23:01:17.302Z,53.30
2023-02-16T23:03:48.063Z,46.17
2023-02-16T23:06:17.144Z,45.87
2023-02-16T23:08:44.415Z,54.27
2023-02-16T23:11:11.830Z,51.50
2023-02-16T23:13:38.741Z,44.13
2023-02-16T23:16:13.733Z,49.30
2023-02-16T23:18:41.290Z,44.43
2023-02-16T23:21:16.739Z,42.67
2023-02-16T23:23:44.168Z,47.03
2023-02-16T23:26:11.039Z,40.97
2023-02-16T23:28:40.578Z,42.63
2023-02-16T23:31:07.340Z,41.43
2023-02-16T23:33:34.569Z,42.20
2023-02-16T23:36:01.571Z,45.43
2023-02-16T23:38:28.196Z,50.90
2023-02-16T23:40:58.365Z,51.07
2023-02-16T23:43:25.812Z,52.63
2023-02-16T23:45:53.469Z,47.80
2023-02-16T23:48:21.026Z,50.60
2023-02-16T23:50:49.128Z,41.03
2023-02-16T23:53:15.820Z,43.77
2023-02-16T23:55:42.811Z,46.90
2023-02-16T23:58:09.617Z,46.23
